Strona główna
METAR-TAF:

METAR-TAF

Lotnisko :

Yankton, Dakota Południowa, Stany Zjednoczone

Szerokość geograficzna: 42-55N, Długość geograficzna: 097-23W, wysokość: 398 m

Aktualna obserwacja pogody

Raport powstał 43 minut temu, godzina 05:56 UTC
Wiatr 7 kt od zachód
Temperatura 1°C
Wilgotność 80%
Ciśnienie 1018 hPa
Widzialność: 16.1 km
Mało chmury na wysokości 2800 ft
Rozproszone chmury na wysokości 3500 ft
Przerywane chmury na wysokości 11000 ft

METAR: KYKN 280556Z AUTO 28007KT 10SM FEW028 SCT035 BKN110 01/M02 A3007 RMK AO2 RAB32E42UPB42E44 SLP209 P0000 60002 T00061017 10017 20006 400281072 58002 FZRANO

czas: 00:39 (06:39 UTC)


TAF: brakujący

Obserwacja i prognoza pogody dla ponad 4000 lotnisk (raport METAR i TAF).

Dostępne stacje oznaczono żółtymi i czerwonymi punktami na mapie.

Najedź kursorem aby zobaczyć nazwę stacji.

Kliknij aby zobaczyć obserwacje i prognozy pogody.

Aby zmienić mapę: kliknij na zielony przycisk z czarnym krzyżykiem, aby powiększyć; na zielony przycisk z myślnikiem, aby pomniejszyć; na zielone strzałki, aby przejść do map sąsiednich.


METAR-TAF: